Time;durP1;ratioP1;P1;durP2;ratioP2;P2;SDS_P1;SDS_P2;PMS_P1;PMS_P2;Temp;Humidity;BMP_temperature;BMP_pressure;BME280_temperature;BME280_humidity;BME280_pressure;Samples;Min_cycle;Max_cycle;Signal;HPM_P1;HPM_P2
2021/08/22 00:01:59;;;;;;;11.43;10.40;;;18.70;99.90;;;;;;4885977;29;20207;-75
2021/08/22 00:04:30;;;;;;;10.90;10.00;;;18.80;99.90;;;;;;4885454;29;20242;-76
2021/08/22 00:06:57;;;;;;;9.87;8.97;;;18.70;99.90;;;;;;4880173;29;20280;-76
2021/08/22 00:09:24;;;;;;;10.43;9.50;;;18.70;99.90;;;;;;4887422;29;20213;-76
2021/08/22 00:11:51;;;;;;;11.10;10.10;;;18.70;99.90;;;;;;4887283;29;20267;-76
2021/08/22 00:14:19;;;;;;;10.73;9.73;;;18.70;99.90;;;;;;4882247;29;20211;-76
2021/08/22 00:16:46;;;;;;;11.53;10.43;;;18.60;99.90;;;;;;4880322;29;20230;-76
2021/08/22 00:19:13;;;;;;;10.10;9.13;;;18.70;99.90;;;;;;4886395;29;20208;-76
2021/08/22 00:21:40;;;;;;;9.50;8.63;;;18.70;99.90;;;;;;4885549;29;20204;-75
2021/08/22 00:24:07;;;;;;;10.03;9.17;;;18.70;99.90;;;;;;4885365;29;20291;-76
2021/08/22 00:26:34;;;;;;;9.63;8.83;;;18.70;99.90;;;;;;4883338;29;20257;-76
2021/08/22 00:29:01;;;;;;;9.47;8.67;;;18.70;99.90;;;;;;4883852;29;20212;-75
2021/08/22 00:31:29;;;;;;;9.73;8.83;;;18.80;99.90;;;;;;4886541;29;20681;-76
2021/08/22 00:33:56;;;;;;;8.70;8.00;;;18.80;99.90;;;;;;4885260;29;20745;-76
2021/08/22 00:36:23;;;;;;;8.03;7.33;;;18.80;99.90;;;;;;4889634;29;20746;-76
2021/08/22 00:38:50;;;;;;;9.70;8.83;;;18.80;99.90;;;;;;4894883;29;20255;-75
2021/08/22 00:41:17;;;;;;;10.40;9.40;;;18.80;99.90;;;;;;4878736;29;20742;-76
2021/08/22 00:43:45;;;;;;;10.00;9.20;;;18.70;99.90;;;;;;4892756;29;20203;-76
2021/08/22 00:46:12;;;;;;;11.00;10.00;;;18.70;99.90;;;;;;4891522;29;20228;-75
2021/08/22 00:48:42;;;;;;;11.30;10.20;;;18.70;99.90;;;;;;4891995;29;20291;-76
2021/08/22 00:51:09;;;;;;;10.10;9.27;;;18.60;99.90;;;;;;4897940;29;20192;-76
2021/08/22 00:53:38;;;;;;;10.13;9.23;;;18.60;99.90;;;;;;4892826;29;20277;-75
2021/08/22 00:56:06;;;;;;;10.37;9.47;;;18.60;99.90;;;;;;4888277;29;20204;-77
2021/08/22 00:58:33;;;;;;;10.47;9.47;;;18.60;99.90;;;;;;4894674;29;20231;-77
2021/08/22 01:01:00;;;;;;;9.33;8.53;;;18.60;99.90;;;;;;4891759;29;20210;-77
2021/08/22 01:03:37;;;;;;;9.80;8.90;;;18.60;99.90;;;;;;4881295;29;20197;-77
2021/08/22 01:06:22;;;;;;;10.87;9.87;;;18.50;99.90;;;;;;4886146;29;20252;-77
2021/08/22 01:08:56;;;;;;;10.43;9.53;;;18.60;99.90;;;;;;4892313;29;20200;-77
2021/08/22 01:11:25;;;;;;;10.87;9.87;;;18.50;99.90;;;;;;4884138;29;20212;-77
2021/08/22 01:13:57;;;;;;;10.63;9.73;;;18.50;99.90;;;;;;4888227;29;20272;-77
2021/08/22 01:16:27;;;;;;;11.13;10.03;;;18.50;99.90;;;;;;4888461;29;20194;-77
2021/08/22 01:18:58;;;;;;;13.13;9.60;;;18.40;99.90;;;;;;4889414;29;20258;-75
2021/08/22 01:21:27;;;;;;;11.53;10.63;;;18.40;99.90;;;;;;4889756;29;20236;-77
2021/08/22 01:23:55;;;;;;;10.43;9.47;;;18.30;99.90;;;;;;4889512;29;20208;-77
2021/08/22 01:26:26;;;;;;;11.33;10.20;;;18.30;99.90;;;;;;4896225;29;20216;-77
2021/08/22 01:28:54;;;;;;;11.27;10.27;;;18.30;99.90;;;;;;4892671;29;20234;-77
2021/08/22 01:31:26;;;;;;;11.70;10.60;;;18.30;99.90;;;;;;4882035;29;20239;-77
2021/08/22 01:33:56;;;;;;;12.13;11.13;;;18.20;99.90;;;;;;4884034;29;20659;-77
2021/08/22 01:36:23;;;;;;;12.40;11.23;;;18.10;99.90;;;;;;4891654;29;20200;-77
2021/08/22 01:38:50;;;;;;;12.20;11.10;;;18.10;99.90;;;;;;4889044;29;20624;-76
2021/08/22 01:41:18;;;;;;;12.63;11.43;;;18.10;99.90;;;;;;4886939;29;20262;-75
2021/08/22 01:43:46;;;;;;;12.33;11.40;;;18.10;99.90;;;;;;4893464;29;20202;-77
2021/08/22 01:46:13;;;;;;;12.23;11.33;;;18.10;99.90;;;;;;4892959;29;20275;-76
2021/08/22 01:48:40;;;;;;;12.60;11.50;;;18.10;99.90;;;;;;4890989;29;20231;-77
2021/08/22 01:51:09;;;;;;;13.20;12.10;;;18.00;99.90;;;;;;4894106;29;20630;-76
2021/08/22 01:53:37;;;;;;;12.73;11.73;;;18.10;99.90;;;;;;4883246;29;20667;-77
2021/08/22 01:56:04;;;;;;;13.03;11.90;;;18.00;99.90;;;;;;4898969;29;20254;-77
2021/08/22 01:58:31;;;;;;;13.00;11.90;;;18.00;99.90;;;;;;4887958;29;20221;-76
2021/08/22 02:00:58;;;;;;;12.97;11.87;;;18.00;99.90;;;;;;4886150;29;20260;-77
2021/08/22 02:03:32;;;;;;;13.03;12.03;;;18.00;99.90;;;;;;4890191;29;20270;-77
2021/08/22 02:06:04;;;;;;;12.20;11.30;;;18.00;99.90;;;;;;4898883;29;20264;-77
2021/08/22 02:08:35;;;;;;;11.77;10.67;;;18.00;99.90;;;;;;4881504;29;20286;-77
2021/08/22 02:11:08;;;;;;;13.00;11.90;;;18.00;99.90;;;;;;4889260;29;20208;-77
2021/08/22 02:13:38;;;;;;;13.10;12.10;;;18.00;99.90;;;;;;4881257;29;20280;-77
2021/08/22 02:16:07;;;;;;;12.40;11.40;;;17.90;99.90;;;;;;4887741;29;20199;-77
2021/08/22 02:18:35;;;;;;;13.00;12.00;;;17.90;99.90;;;;;;4892948;29;20769;-77
2021/08/22 02:21:03;;;;;;;12.53;11.57;;;17.80;99.90;;;;;;4891719;29;20270;-76
2021/08/22 02:23:29;;;;;;;10.87;9.97;;;17.90;99.90;;;;;;4889292;29;20210;-77
2021/08/22 02:25:58;;;;;;;11.80;10.90;;;17.90;99.90;;;;;;4890245;29;20274;-77
2021/08/22 02:28:25;;;;;;;11.47;10.47;;;17.90;99.90;;;;;;4893977;29;20707;-78
2021/08/22 02:30:52;;;;;;;10.17;9.30;;;17.90;99.90;;;;;;4891346;29;20211;-82
2021/08/22 02:33:19;;;;;;;12.03;11.07;;;17.90;99.90;;;;;;4889932;29;20212;-81
2021/08/22 02:35:46;;;;;;;12.30;11.30;;;17.90;99.90;;;;;;4877387;29;20209;-80
2021/08/22 02:38:13;;;;;;;10.97;10.17;;;17.90;99.90;;;;;;4893674;29;20277;-80
2021/08/22 02:40:40;;;;;;;12.47;11.47;;;17.90;99.90;;;;;;4886861;29;20274;-79
2021/08/22 02:43:08;;;;;;;11.40;10.50;;;17.90;99.90;;;;;;4886935;29;20207;-79
2021/08/22 02:45:35;;;;;;;12.43;11.40;;;17.80;99.90;;;;;;4884895;29;20245;-79
2021/08/22 02:48:02;;;;;;;12.43;11.43;;;17.80;99.90;;;;;;4887324;29;20312;-80
2021/08/22 02:50:29;;;;;;;11.60;10.60;;;17.80;99.90;;;;;;4878069;29;20581;-79
2021/08/22 02:52:57;;;;;;;12.73;11.47;;;17.80;99.90;;;;;;4879791;29;20624;-83
2021/08/22 02:55:23;;;;;;;13.10;11.93;;;17.80;99.90;;;;;;4885029;29;20202;-76
2021/08/22 02:57:50;;;;;;;12.60;11.60;;;17.80;99.90;;;;;;4874944;29;20227;-77
2021/08/22 03:00:19;;;;;;;13.93;12.80;;;17.70;99.90;;;;;;4878086;29;20213;-76
2021/08/22 03:02:45;;;;;;;12.97;11.97;;;17.70;99.90;;;;;;4885048;29;20194;-77
2021/08/22 03:05:12;;;;;;;12.17;11.17;;;17.60;99.90;;;;;;4884185;29;20273;-77
2021/08/22 03:07:39;;;;;;;13.67;12.47;;;17.70;99.90;;;;;;4875495;29;20229;-77
2021/08/22 03:10:07;;;;;;;12.50;11.50;;;17.60;99.90;;;;;;4881741;29;20258;-77
2021/08/22 03:12:34;;;;;;;12.73;11.70;;;17.60;99.90;;;;;;4885736;29;20688;-77
2021/08/22 03:15:01;;;;;;;12.30;11.30;;;17.60;99.90;;;;;;4888872;29;20203;-77
2021/08/22 03:17:29;;;;;;;11.43;10.53;;;17.60;99.90;;;;;;4891284;29;20716;-77
2021/08/22 03:19:56;;;;;;;11.17;10.17;;;17.60;99.90;;;;;;4888306;29;20198;-77
2021/08/22 03:22:23;;;;;;;12.07;11.07;;;17.60;99.90;;;;;;4886875;29;20223;-77
2021/08/22 03:24:50;;;;;;;13.37;12.40;;;17.60;99.90;;;;;;4884473;29;20256;-77
2021/08/22 03:27:17;;;;;;;13.60;12.57;;;17.60;99.90;;;;;;4886238;29;20296;-77
2021/08/22 03:29:44;;;;;;;13.50;12.50;;;17.60;99.90;;;;;;4886806;29;20268;-77
2021/08/22 03:32:10;;;;;;;13.63;12.47;;;17.60;99.90;;;;;;4895257;29;20201;-77
2021/08/22 03:34:39;;;;;;;13.83;12.63;;;17.60;99.90;;;;;;4884168;29;20216;-77
2021/08/22 03:37:06;;;;;;;12.60;11.60;;;17.60;99.90;;;;;;4888047;29;20289;-77
2021/08/22 03:39:33;;;;;;;12.70;11.70;;;17.50;99.90;;;;;;4879081;29;20580;-77
2021/08/22 03:42:00;;;;;;;13.17;12.00;;;17.50;99.90;;;;;;4883537;29;20210;-77
2021/08/22 03:44:27;;;;;;;12.47;11.47;;;17.50;99.90;;;;;;4884580;29;20739;-77
2021/08/22 03:46:53;;;;;;;12.07;11.07;;;17.50;99.90;;;;;;4890765;29;20775;-77
2021/08/22 03:49:20;;;;;;;11.90;10.97;;;17.50;99.90;;;;;;4886025;29;20198;-77
2021/08/22 03:51:48;;;;;;;13.13;12.03;;;17.40;99.90;;;;;;4879133;29;20212;-77
2021/08/22 03:54:15;;;;;;;11.83;10.93;;;17.40;99.90;;;;;;4884165;29;20204;-77
2021/08/22 03:56:42;;;;;;;12.83;11.83;;;17.40;99.90;;;;;;4885581;29;20206;-77
2021/08/22 03:59:09;;;;;;;12.40;11.47;;;17.40;99.90;;;;;;4880335;29;20260;-77
2021/08/22 04:01:36;;;;;;;13.20;12.10;;;17.40;99.90;;;;;;4878851;29;20598;-77
2021/08/22 04:04:14;;;;;;;13.23;12.30;;;17.40;99.90;;;;;;4881918;29;20206;-77
2021/08/22 04:09:35;;;;;;;12.10;11.13;;;17.40;99.90;;;;;;4894676;29;20217;-77
2021/08/22 04:12:04;;;;;;;13.70;12.70;;;17.30;99.90;;;;;;4898382;29;20203;-78
2021/08/22 04:14:30;;;;;;;13.80;12.70;;;17.30;99.90;;;;;;4898416;29;20240;-77
2021/08/22 04:16:57;;;;;;;13.87;12.77;;;17.30;99.90;;;;;;4914036;29;20497;-78
2021/08/22 04:19:24;;;;;;;14.33;13.20;;;17.40;99.90;;;;;;4899645;29;20199;-78
2021/08/22 04:21:51;;;;;;;15.70;14.40;;;17.30;99.90;;;;;;4899826;29;20261;-77
2021/08/22 04:24:18;;;;;;;14.97;13.63;;;17.40;99.90;;;;;;4913782;29;20205;-77
2021/08/22 04:26:48;;;;;;;14.53;13.50;;;17.40;99.90;;;;;;4896864;29;20217;-78
2021/08/22 04:29:15;;;;;;;13.50;12.40;;;17.40;99.90;;;;;;4909102;29;20292;-78
2021/08/22 04:31:41;;;;;;;13.20;12.10;;;17.40;99.90;;;;;;4895652;29;20201;-78
2021/08/22 04:34:08;;;;;;;13.00;11.90;;;17.50;99.90;;;;;;4895560;29;20216;-78
2021/08/22 04:36:35;;;;;;;13.07;11.97;;;17.50;99.90;;;;;;4899590;29;20193;-77
2021/08/22 04:39:04;;;;;;;13.00;12.00;;;17.50;99.90;;;;;;4897286;29;20221;-80
2021/08/22 04:41:44;;;;;;;14.30;13.10;;;17.50;99.90;;;;;;4894563;29;20209;-80
2021/08/22 04:44:29;;;;;;;15.13;14.03;;;17.60;99.90;;;;;;4893184;29;20205;-79
2021/08/22 04:47:10;;;;;;;13.40;12.40;;;17.60;99.90;;;;;;4901502;29;20220;-77
2021/08/22 04:49:44;;;;;;;12.80;11.80;;;17.60;99.90;;;;;;4893554;29;20724;-81
2021/08/22 04:52:11;;;;;;;14.30;13.27;;;17.70;99.90;;;;;;4898205;29;20283;-80
2021/08/22 04:54:45;;;;;;;14.53;13.43;;;17.80;99.90;;;;;;4899224;29;20211;-79
2021/08/22 04:57:17;;;;;;;13.67;12.67;;;17.80;99.90;;;;;;4898140;29;20228;-78
2021/08/22 05:00:19;;;;;;;12.50;11.50;;;17.80;99.90;;;;;;4900174;29;20271;-79
2021/08/22 05:02:56;;;;;;;12.00;11.00;;;17.80;99.90;;;;;;4897054;29;20213;-78
2021/08/22 05:05:26;;;;;;;12.40;11.23;;;17.80;99.90;;;;;;4897498;29;20193;-79
2021/08/22 05:08:10;;;;;;;11.37;10.47;;;17.80;99.90;;;;;;4898032;29;20241;-77
2021/08/22 05:10:37;;;;;;;11.43;10.53;;;17.90;99.90;;;;;;4898888;29;20226;-77
2021/08/22 05:13:04;;;;;;;12.00;11.00;;;17.90;99.90;;;;;;4916229;29;20265;-77
2021/08/22 05:15:32;;;;;;;11.70;10.70;;;18.00;99.90;;;;;;4898197;29;20201;-78
2021/08/22 05:17:59;;;;;;;10.40;9.60;;;18.00;99.90;;;;;;4897418;29;20234;-78
2021/08/22 05:20:25;;;;;;;10.73;9.73;;;18.00;99.90;;;;;;4894877;29;20592;-77
2021/08/22 05:22:52;;;;;;;10.10;9.30;;;18.00;99.90;;;;;;4897770;29;20694;-78
2021/08/22 05:25:19;;;;;;;11.83;10.83;;;18.10;99.90;;;;;;4898321;29;20210;-77
2021/08/22 05:27:46;;;;;;;12.80;11.80;;;18.10;99.90;;;;;;4898296;29;20222;-77
2021/08/22 05:30:13;;;;;;;11.83;11.03;;;18.10;99.90;;;;;;4898361;29;20727;-77
2021/08/22 05:32:41;;;;;;;12.47;11.47;;;18.20;99.90;;;;;;4897056;29;20207;-77
2021/08/22 05:35:09;;;;;;;11.27;10.37;;;18.20;99.90;;;;;;4897913;29;20212;-78
2021/08/22 05:37:36;;;;;;;9.87;9.07;;;18.20;99.90;;;;;;4912879;29;20595;-77
2021/08/22 05:40:03;;;;;;;9.10;8.30;;;18.30;99.90;;;;;;4896920;29;20223;-77
2021/08/22 05:42:29;;;;;;;10.00;9.20;;;18.30;99.90;;;;;;4895292;29;20207;-77
2021/08/22 05:44:56;;;;;;;11.37;10.27;;;18.40;99.90;;;;;;4896970;29;20203;-77
2021/08/22 05:47:23;;;;;;;8.50;7.80;;;18.40;99.90;;;;;;4895031;29;20222;-79
2021/08/22 05:49:51;;;;;;;8.50;7.80;;;18.50;99.90;;;;;;4897838;29;20249;-78
2021/08/22 05:52:18;;;;;;;12.77;11.87;;;18.60;99.90;;;;;;4895030;29;20205;-77
2021/08/22 05:54:45;;;;;;;12.67;11.77;;;18.60;99.90;;;;;;4897740;29;20250;-78
2021/08/22 05:57:12;;;;;;;12.70;11.70;;;18.60;99.90;;;;;;4896007;29;20233;-79
2021/08/22 05:59:39;;;;;;;11.97;11.07;;;18.70;99.90;;;;;;4897834;29;20202;-78
2021/08/22 06:02:05;;;;;;;12.70;11.80;;;18.70;99.90;;;;;;4912571;29;20580;-78
2021/08/22 06:04:32;;;;;;;10.90;10.10;;;18.70;99.90;;;;;;4908239;29;20290;-77
2021/08/22 06:07:00;;;;;;;11.80;10.90;;;18.80;99.90;;;;;;4897260;29;20223;-77
2021/08/22 06:09:30;;;;;;;10.80;10.00;;;18.90;99.90;;;;;;4897663;29;20584;-78
2021/08/22 06:11:57;;;;;;;11.53;10.73;;;18.90;99.90;;;;;;4897373;29;20250;-77
2021/08/22 06:14:23;;;;;;;8.73;5.87;;;19.00;99.90;;;;;;4896271;29;20626;-77
2021/08/22 06:16:50;;;;;;;6.63;5.90;;;19.30;99.90;;;;;;4897490;29;20276;-78
2021/08/22 06:19:17;;;;;;;6.77;5.80;;;19.50;99.90;;;;;;4895640;29;20244;-77
2021/08/22 06:21:44;;;;;;;9.70;8.80;;;19.70;99.90;;;;;;4893423;29;20276;-77
2021/08/22 06:27:37;;;;;;;9.30;8.57;;;20.20;99.90;;;;;;4891551;29;20263;-81
2021/08/22 06:30:05;;;;;;;9.83;9.13;;;20.40;99.90;;;;;;4912120;29;20351;-78
2021/08/22 06:32:31;;;;;;;10.23;9.43;;;20.40;99.90;;;;;;4891293;29;20638;-78
2021/08/22 06:35:05;;;;;;;10.67;9.77;;;20.40;99.90;;;;;;4893593;29;20409;-83
2021/08/22 06:37:32;;;;;;;13.60;12.60;;;20.50;99.90;;;;;;4908848;29;20761;-78
2021/08/22 06:40:01;;;;;;;6.23;5.63;;;20.40;99.90;;;;;;4894608;29;20219;-78
2021/08/22 06:42:28;;;;;;;10.87;10.07;;;20.30;99.90;;;;;;4911178;29;20210;-79
2021/08/22 06:44:55;;;;;;;10.97;10.17;;;20.20;99.90;;;;;;4896388;29;20205;-78
2021/08/22 06:47:21;;;;;;;11.20;10.40;;;20.20;99.90;;;;;;4909550;29;20246;-78
2021/08/22 06:49:48;;;;;;;11.90;11.10;;;20.20;99.90;;;;;;4893102;29;20205;-78
2021/08/22 06:52:15;;;;;;;11.40;10.60;;;20.20;99.90;;;;;;4891518;29;20201;-78
2021/08/22 06:54:42;;;;;;;10.87;10.07;;;20.20;99.90;;;;;;4885455;29;20204;-78
2021/08/22 06:57:14;;;;;;;11.73;10.93;;;20.20;99.90;;;;;;4895050;29;20225;-76
2021/08/22 06:59:44;;;;;;;11.23;10.53;;;20.20;99.90;;;;;;4892166;29;20233;-77
2021/08/22 07:02:11;;;;;;;4.90;4.40;;;20.30;99.90;;;;;;4886427;29;20201;-77
2021/08/22 07:04:38;;;;;;;5.43;5.00;;;20.30;99.90;;;;;;4889682;29;20202;-77
2021/08/22 07:07:05;;;;;;;4.60;4.20;;;20.30;99.90;;;;;;4909626;29;20237;-77
2021/08/22 07:09:32;;;;;;;4.57;4.10;;;20.40;99.90;;;;;;4896430;29;20612;-77
2021/08/22 07:11:59;;;;;;;10.30;9.50;;;20.40;99.90;;;;;;4892595;29;20204;-77
2021/08/22 07:14:27;;;;;;;11.27;10.47;;;20.40;99.90;;;;;;4907506;29;20261;-77
2021/08/22 07:16:54;;;;;;;10.07;9.47;;;20.40;99.90;;;;;;4892202;29;20194;-77
2021/08/22 07:19:21;;;;;;;10.73;10.03;;;20.40;99.90;;;;;;4888160;29;20207;-77
2021/08/22 07:21:48;;;;;;;10.70;9.90;;;20.40;99.90;;;;;;4896688;29;20198;-77
2021/08/22 07:24:18;;;;;;;11.20;10.40;;;20.40;99.90;;;;;;4895762;29;20264;-77
2021/08/22 07:26:45;;;;;;;10.67;9.87;;;20.40;99.90;;;;;;4894272;29;20302;-76
2021/08/22 07:29:15;;;;;;;10.60;9.90;;;20.40;99.90;;;;;;4896219;29;20203;-76
2021/08/22 07:31:46;;;;;;;10.77;9.97;;;20.40;99.90;;;;;;4892467;29;20201;-77
2021/08/22 07:34:13;;;;;;;10.70;10.00;;;20.40;99.90;;;;;;4894390;29;20208;-77
2021/08/22 07:36:41;;;;;;;9.97;9.30;;;20.50;99.90;;;;;;4893398;29;20198;-77
2021/08/22 07:39:11;;;;;;;10.43;9.73;;;20.60;99.90;;;;;;4909413;29;20667;-78
2021/08/22 07:41:38;;;;;;;11.03;10.23;;;20.70;99.90;;;;;;4894640;29;20920;-78
2021/08/22 07:44:06;;;;;;;10.57;9.87;;;20.90;99.90;;;;;;4892336;29;20216;-78
2021/08/22 07:46:34;;;;;;;11.77;10.97;;;21.10;99.90;;;;;;4892987;29;20210;-77
2021/08/22 07:49:02;;;;;;;11.13;10.37;;;21.20;99.90;;;;;;4891644;29;20219;-77
2021/08/22 07:51:29;;;;;;;10.63;9.90;;;21.40;99.90;;;;;;4898705;29;20203;-78
2021/08/22 07:54:02;;;;;;;10.53;9.73;;;21.70;99.90;;;;;;4900010;29;20293;-78
2021/08/22 07:56:42;;;;;;;10.50;9.70;;;21.90;99.90;;;;;;4900091;29;20195;-77
2021/08/22 07:59:16;;;;;;;5.63;5.03;;;22.30;99.90;;;;;;4901299;29;20290;-78
2021/08/22 08:02:13;;;;;;;4.80;4.30;;;22.50;99.90;;;;;;4900580;29;20202;-77
2021/08/22 08:11:06;;;;;;;6.63;6.03;;;23.30;99.90;;;;;;4893098;29;20218;-78
2021/08/22 08:14:11;;;;;;;7.60;7.00;;;23.30;99.90;;;;;;4916036;29;20239;-78
2021/08/22 08:16:56;;;;;;;11.07;10.17;;;23.50;99.90;;;;;;4898371;29;20201;-77
2021/08/22 08:19:37;;;;;;;9.47;8.77;;;23.70;99.90;;;;;;4900218;29;20209;-79
2021/08/22 08:22:13;;;;;;;8.50;7.90;;;23.70;99.90;;;;;;4900394;29;20207;-78
2021/08/22 08:25:00;;;;;;;7.50;6.90;;;23.70;99.90;;;;;;4909689;29;20202;-78
2021/08/22 08:27:30;;;;;;;7.60;5.07;;;23.60;99.90;;;;;;4899143;29;20224;-78
2021/08/22 08:29:57;;;;;;;6.23;5.63;;;23.80;99.90;;;;;;4898507;29;20535;-79
2021/08/22 08:32:29;;;;;;;7.13;6.53;;;24.00;99.90;;;;;;4898589;29;20239;-78
2021/08/22 08:35:41;;;;;;;6.43;5.83;;;24.10;99.90;;;;;;4914677;29;20221;-78
2021/08/22 10:10:56;;;;;;;5.33;4.80;;;24.00;99.90;;;;;;4922848;29;20218;-77
2021/08/22 10:13:25;;;;;;;5.23;4.30;;;23.80;99.90;;;;;;4926308;29;20188;-76
2021/08/22 10:15:52;;;;;;;6.60;6.00;;;23.80;99.90;;;;;;4919874;29;20255;-76
2021/08/22 10:18:24;;;;;;;7.80;7.10;;;23.80;99.90;;;;;;4925727;29;20229;-76
2021/08/22 10:20:53;;;;;;;9.47;8.77;;;23.80;99.90;;;;;;4920112;29;20201;-76
2021/08/22 10:23:50;;;;;;;5.70;4.80;;;23.80;99.90;;;;;;4904614;29;20208;-77
2021/08/22 10:26:58;;;;;;;8.43;7.63;;;23.70;99.90;;;;;;4903534;29;20195;-77
2021/08/22 10:29:30;;;;;;;7.50;6.80;;;23.50;99.90;;;;;;4900679;29;20197;-77
2021/08/22 10:32:11;;;;;;;6.30;5.63;;;23.50;99.90;;;;;;4906050;29;20205;-79
2021/08/22 10:34:45;;;;;;;11.00;10.07;;;23.40;99.90;;;;;;4905332;29;20207;-76
2021/08/22 10:37:31;;;;;;;5.33;4.60;;;23.30;99.90;;;;;;4903353;29;20224;-76
2021/08/22 10:43:38;;;;;;;7.87;7.27;;;23.10;99.90;;;;;;4902448;29;20204;-76
2021/08/22 10:46:06;;;;;;;4.97;4.27;;;23.10;99.90;;;;;;4900882;29;20646;-76
2021/08/22 10:48:46;;;;;;;6.07;4.30;;;23.20;99.90;;;;;;4900238;29;20773;-76
2021/08/22 10:51:13;;;;;;;5.33;4.60;;;23.30;99.90;;;;;;4910823;29;20198;-76
2021/08/22 10:53:43;;;;;;;5.77;4.63;;;23.30;99.90;;;;;;4904831;29;20204;-76
2021/08/22 10:56:39;;;;;;;6.27;5.67;;;23.20;99.90;;;;;;4924870;29;20205;-77
2021/08/22 10:59:10;;;;;;;6.23;5.73;;;23.20;99.90;;;;;;4906325;29;20312;-76
2021/08/22 11:01:42;;;;;;;5.97;5.37;;;23.20;99.90;;;;;;4911832;29;20200;-77
2021/08/22 11:04:17;;;;;;;9.43;8.70;;;23.30;99.90;;;;;;4909869;29;20564;-76
2021/08/22 11:07:06;;;;;;;5.67;5.07;;;23.40;99.90;;;;;;4904197;29;20203;-77
2021/08/22 11:09:41;;;;;;;5.33;4.73;;;23.40;99.90;;;;;;4913970;29;20201;-76
2021/08/22 11:12:42;;;;;;;6.03;5.43;;;23.40;99.90;;;;;;4913362;29;20295;-77
2021/08/22 11:15:22;;;;;;;5.97;5.37;;;23.40;99.90;;;;;;4823238;29;20290;-76
2021/08/22 11:17:50;;;;;;;5.20;4.70;;;23.30;99.90;;;;;;4832528;29;20283;-76
2021/08/22 11:20:18;;;;;;;7.20;6.63;;;23.30;99.90;;;;;;4867378;29;20274;-76
2021/08/22 11:22:47;;;;;;;5.97;5.47;;;23.30;99.90;;;;;;4906004;29;20684;-77
2021/08/22 11:25:14;;;;;;;8.63;8.03;;;23.30;99.90;;;;;;4918904;29;20669;-77
2021/08/22 11:27:42;;;;;;;9.30;8.60;;;23.30;99.90;;;;;;4909192;29;20275;-76
2021/08/22 11:30:13;;;;;;;10.33;9.17;;;23.20;99.90;;;;;;4911947;29;20293;-77
2021/08/22 11:32:50;;;;;;;10.27;9.27;;;23.20;99.90;;;;;;4908652;29;20199;-77
2021/08/22 11:35:21;;;;;;;9.53;8.83;;;23.40;99.90;;;;;;4914129;29;20207;-76
2021/08/22 11:51:54;;;;;;;4.97;4.47;;;24.00;99.90;;;;;;4876325;29;20198;-78
2021/08/22 11:54:22;;;;;;;5.10;4.60;;;24.00;99.90;;;;;;4901850;29;20207;-76
2021/08/22 11:56:50;;;;;;;6.00;5.10;;;23.90;99.90;;;;;;4905221;29;20224;-76
2021/08/22 11:59:24;;;;;;;5.07;4.63;;;23.80;99.90;;;;;;4906516;29;20240;-76
2021/08/22 12:01:51;;;;;;;9.50;8.80;;;23.80;99.90;;;;;;4901814;29;20288;-77
2021/08/22 12:04:19;;;;;;;6.37;5.60;;;23.70;99.90;;;;;;4900967;29;20208;-76
2021/08/22 12:06:46;;;;;;;6.93;4.80;;;23.60;99.90;;;;;;4910618;29;20196;-76
2021/08/22 12:09:19;;;;;;;5.90;4.40;;;23.40;99.90;;;;;;4923430;29;20727;-77
2021/08/22 12:11:46;;;;;;;5.27;4.53;;;23.40;99.90;;;;;;4901394;29;20197;-77
2021/08/22 12:14:18;;;;;;;4.83;4.23;;;23.30;99.90;;;;;;4914158;29;20302;-77
2021/08/22 12:16:55;;;;;;;6.07;4.80;;;23.30;99.90;;;;;;4919643;29;20196;-76
2021/08/22 12:19:29;;;;;;;8.90;8.20;;;23.20;99.90;;;;;;4908442;29;20230;-76
2021/08/22 12:21:57;;;;;;;4.83;4.33;;;23.10;99.90;;;;;;4925463;29;20295;-76
2021/08/22 12:24:28;;;;;;;8.37;7.67;;;23.10;99.90;;;;;;4906231;29;20200;-76
2021/08/22 12:26:56;;;;;;;5.47;4.57;;;23.10;99.90;;;;;;4917883;29;20313;-76
2021/08/22 12:29:33;;;;;;;4.73;4.27;;;23.20;99.90;;;;;;4918475;29;20223;-76
2021/08/22 12:32:08;;;;;;;5.37;4.87;;;23.20;99.90;;;;;;4914527;29;20215;-76
2021/08/22 12:34:36;;;;;;;5.33;4.83;;;23.30;99.90;;;;;;4923542;29;20684;-76
2021/08/22 12:37:12;;;;;;;5.40;4.87;;;23.40;99.90;;;;;;4906743;29;20248;-76
2021/08/22 12:39:40;;;;;;;5.13;4.60;;;23.50;99.90;;;;;;4918195;29;20258;-76
2021/08/22 12:42:07;;;;;;;4.60;4.20;;;23.70;99.90;;;;;;4918821;29;20205;-76
2021/08/22 12:44:37;;;;;;;5.90;4.97;;;23.90;99.90;;;;;;4901601;29;20201;-77
2021/08/22 13:05:47;;;;;;;8.90;8.23;;;23.10;99.90;;;;;;4906702;29;20247;-76
2021/08/22 13:08:14;;;;;;;8.90;8.30;;;22.30;99.90;;;;;;4912600;29;20318;-77
2021/08/22 13:10:41;;;;;;;8.50;7.90;;;22.00;99.90;;;;;;4914150;29;20199;-77
2021/08/22 13:13:08;;;;;;;9.10;8.30;;;21.70;99.90;;;;;;4906221;29;20222;-77
2021/08/22 13:15:36;;;;;;;9.20;8.50;;;21.50;99.90;;;;;;4911990;29;20204;-77
2021/08/22 13:18:03;;;;;;;8.80;8.20;;;21.20;99.90;;;;;;4898687;29;20744;-76
2021/08/22 13:20:30;;;;;;;8.93;8.33;;;21.00;99.90;;;;;;4909801;29;20224;-76
2021/08/22 13:22:58;;;;;;;8.83;8.13;;;20.90;99.90;;;;;;4906637;29;20744;-76
2021/08/22 13:25:25;;;;;;;8.90;8.30;;;20.80;99.90;;;;;;4917141;29;20720;-76
2021/08/22 13:27:52;;;;;;;9.10;8.50;;;20.70;99.90;;;;;;4898015;29;20226;-76
2021/08/22 13:30:19;;;;;;;8.73;8.13;;;20.70;99.90;;;;;;4912355;29;20213;-76
2021/08/22 13:32:56;;;;;;;9.43;8.63;;;20.70;99.90;;;;;;4911642;29;20699;-76
2021/08/22 13:38:20;;;;;;;8.40;7.80;;;20.70;99.90;;;;;;4921603;29;20230;-76
2021/08/22 13:40:51;;;;;;;9.43;8.67;;;20.70;99.90;;;;;;4925692;29;20210;-77
2021/08/22 13:43:21;;;;;;;8.70;8.00;;;20.70;99.90;;;;;;4908744;29;20210;-76
2021/08/22 13:45:48;;;;;;;8.33;7.73;;;20.60;99.90;;;;;;4905956;29;20660;-76
2021/08/22 13:48:16;;;;;;;9.20;8.50;;;20.50;99.90;;;;;;4922978;29;20235;-76
2021/08/22 13:50:43;;;;;;;8.80;8.10;;;20.60;99.90;;;;;;4912601;29;20203;-76
2021/08/22 13:53:10;;;;;;;8.57;7.97;;;20.70;99.90;;;;;;4927717;29;20671;-75
2021/08/22 13:55:39;;;;;;;8.90;8.30;;;20.70;99.90;;;;;;4909684;29;20213;-77
2021/08/22 13:58:06;;;;;;;8.53;7.83;;;20.80;99.90;;;;;;4910259;29;20231;-76
2021/08/22 14:00:34;;;;;;;8.00;7.50;;;20.60;99.90;;;;;;4914611;29;20265;-76
2021/08/22 14:03:03;;;;;;;8.23;7.50;;;20.60;99.90;;;;;;4898495;29;20207;-77
2021/08/22 14:05:32;;;;;;;7.90;7.40;;;20.50;99.90;;;;;;4908627;29;20666;-76
2021/08/22 14:07:59;;;;;;;7.97;7.43;;;20.60;99.90;;;;;;4910811;29;20696;-76
2021/08/22 14:10:26;;;;;;;7.90;7.30;;;20.70;99.90;;;;;;4907970;29;20226;-77
2021/08/22 14:12:55;;;;;;;8.00;7.50;;;20.60;99.90;;;;;;4920104;29;20214;-77
2021/08/22 14:15:27;;;;;;;7.50;7.00;;;20.40;99.90;;;;;;4912436;29;20262;-76
2021/08/22 14:18:01;;;;;;;7.80;7.20;;;20.10;99.90;;;;;;4914481;29;20237;-76
2021/08/22 14:20:31;;;;;;;8.20;7.60;;;20.00;99.90;;;;;;4911873;29;20200;-76
2021/08/22 14:23:00;;;;;;;7.70;7.20;;;19.80;99.90;;;;;;4911231;29;20701;-76
2021/08/22 14:25:27;;;;;;;7.60;7.00;;;19.80;99.90;;;;;;4905032;29;20635;-76
2021/08/22 14:27:55;;;;;;;7.30;6.80;;;19.80;99.90;;;;;;4912993;29;20217;-77
2021/08/22 14:30:21;;;;;;;7.57;7.07;;;19.80;99.90;;;;;;4914989;29;20638;-76
2021/08/22 14:32:48;;;;;;;7.57;7.00;;;19.80;99.90;;;;;;4906280;29;20217;-77
2021/08/22 14:35:15;;;;;;;7.70;7.20;;;19.70;99.90;;;;;;4905887;29;20200;-76
2021/08/22 14:37:42;;;;;;;7.77;7.27;;;19.70;99.90;;;;;;4904646;29;20243;-76
2021/08/22 14:40:11;;;;;;;7.30;6.87;;;19.70;99.90;;;;;;4907506;29;20189;-77
2021/08/22 14:42:38;;;;;;;7.53;7.03;;;19.70;99.90;;;;;;4919470;29;20203;-77
2021/08/22 14:45:06;;;;;;;7.60;7.07;;;19.60;99.90;;;;;;4913522;29;20851;-77
2021/08/22 14:47:33;;;;;;;8.03;7.53;;;19.70;99.90;;;;;;4922900;29;20768;-78
2021/08/22 14:50:00;;;;;;;7.97;7.47;;;19.80;99.90;;;;;;4916004;29;20232;-77
2021/08/22 14:52:28;;;;;;;8.30;7.60;;;19.60;99.90;;;;;;4909218;29;20200;-79
2021/08/22 14:54:55;;;;;;;8.13;7.53;;;19.50;99.90;;;;;;4910383;29;20203;-78
2021/08/22 14:57:26;;;;;;;8.23;7.73;;;19.60;99.90;;;;;;4920367;29;20381;-78
2021/08/22 14:59:53;;;;;;;8.67;8.07;;;19.60;99.90;;;;;;4917030;29;20661;-77
2021/08/22 15:02:20;;;;;;;8.60;7.90;;;19.70;99.90;;;;;;4904555;29;20201;-77
2021/08/22 15:04:46;;;;;;;8.60;8.00;;;19.60;99.90;;;;;;4905222;29;20244;-79
2021/08/22 15:07:13;;;;;;;8.27;7.70;;;19.70;99.90;;;;;;4921317;29;20219;-78
2021/08/22 15:09:41;;;;;;;8.23;7.63;;;19.70;99.90;;;;;;4907697;29;20224;-78
2021/08/22 15:12:11;;;;;;;5.47;5.07;;;19.80;99.90;;;;;;4911960;29;20212;-78
2021/08/22 15:14:41;;;;;;;5.80;5.30;;;19.90;99.90;;;;;;4911415;29;20200;-79
2021/08/22 15:17:08;;;;;;;5.90;5.50;;;20.20;99.90;;;;;;4911513;29;20261;-78